Time,TemperatureF,DewpointF,PressureIn,WindDirection,WindDirectionDegrees,WindSpeedMPH,WindSpeedGustMPH,Humidity,HourlyPrecipIn,Conditions,Clouds,dailyrainin,SolarRadiationWatts/m^2,SoftwareType,DateUTC
2013-03-20 00:05:00,10.7,6.0,30.37,WNW,302,18.0,19.0,81,0.00,,---,0.00,0.00,VWS V14.01,2013-03-20 05:05:00,
2013-03-20 00:11:00,10.6,5.9,30.37,WNW,303,18.0,24.0,81,0.00,,---,0.00,0.00,VWS V14.01,2013-03-20 05:11:00,
2013-03-20 00:16:00,10.5,5.8,30.37,NW,308,20.0,24.0,81,0.00,,---,0.00,0.00,VWS V14.01,2013-03-20 05:16:00,
2013-03-20 00:22:00,10.5,5.8,30.37,WNW,294,19.0,21.0,81,0.00,,---,0.00,0.00,VWS V14.01,2013-03-20 05:22:00,
2013-03-20 00:28:00,10.5,5.8,30.36,WNW,295,17.0,22.0,81,0.00,,---,0.00,0.00,VWS V14.01,2013-03-20 05:28:00,
2013-03-20 00:33:00,10.4,5.7,30.36,NW,313,18.0,22.0,81,0.00,,---,0.00,0.00,VWS V14.01,2013-03-20 05:33:00,
2013-03-20 00:41:00,10.4,5.7,30.36,WNW,294,16.0,22.0,81,0.00,,---,0.00,0.00,VWS V14.01,2013-03-20 05:41:00,
2013-03-20 00:47:00,10.3,5.6,30.37,WNW,295,13.0,24.0,81,0.00,,---,0.00,0.00,VWS V14.01,2013-03-20 05:47:00,
2013-03-20 00:52:00,10.3,5.6,30.36,WNW,297,13.0,21.0,81,0.00,,---,0.00,0.00,VWS V14.01,2013-03-20 05:52:00,
2013-03-20 00:57:00,10.2,5.5,30.37,WNW,287,14.0,21.0,81,0.00,,---,0.00,0.00,VWS V14.01,2013-03-20 05:57:00,
2013-03-20 01:03:00,10.2,5.5,30.36,NW,306,17.0,23.0,81,0.00,,---,0.00,0.00,VWS V14.01,2013-03-20 06:03:00,
2013-03-20 01:09:00,10.0,5.3,30.36,WNW,300,20.0,22.0,81,0.00,,---,0.00,0.00,VWS V14.01,2013-03-20 06:09:00,
2013-03-20 01:14:00,10.0,5.3,30.36,WNW,300,17.0,26.0,81,0.00,,---,0.00,0.00,VWS V14.01,2013-03-20 06:14:00,
2013-03-20 01:20:00,10.0,5.3,30.36,WNW,301,13.0,21.0,81,0.00,,---,0.00,0.00,VWS V14.01,2013-03-20 06:20:00,
2013-03-20 01:27:00,9.9,5.2,30.36,WNW,300,21.0,26.0,81,0.00,,---,0.00,0.00,VWS V14.01,2013-03-20 06:27:00,
2013-03-20 01:33:00,9.8,5.2,30.36,WNW,295,17.0,26.0,81,0.00,,---,0.00,0.00,VWS V14.01,2013-03-20 06:33:00,
2013-03-20 01:41:00,9.5,4.9,30.36,WNW,299,18.0,21.0,81,0.00,,---,0.00,0.00,VWS V14.01,2013-03-20 06:41:00,
2013-03-20 01:49:00,9.3,4.7,30.36,WNW,301,16.0,16.0,81,0.00,,---,0.00,0.00,VWS V14.01,2013-03-20 06:49:00,
2013-03-20 01:54:00,9.1,4.5,30.36,WNW,296,14.0,23.0,81,0.00,,---,0.00,0.00,VWS V14.01,2013-03-20 06:54:00,
2013-03-20 01:59:00,9.1,4.5,30.36,WNW,298,17.0,24.0,81,0.00,,---,0.00,0.00,VWS V14.01,2013-03-20 06:59:00,
2013-03-20 02:04:00,9.0,4.4,30.36,WNW,303,14.0,20.0,81,0.00,,---,0.00,0.00,VWS V14.01,2013-03-20 07:04:00,
2013-03-20 02:12:00,8.9,4.3,30.36,WNW,298,14.0,23.0,81,0.00,,---,0.00,0.00,VWS V14.01,2013-03-20 07:12:00,
2013-03-20 02:17:00,8.7,4.1,30.36,WNW,294,11.0,23.0,81,0.00,,---,0.00,0.00,VWS V14.01,2013-03-20 07:17:00,
2013-03-20 02:23:00,8.6,4.0,30.36,WNW,300,9.0,19.0,81,0.00,,---,0.00,0.00,VWS V14.01,2013-03-20 07:23:00,
2013-03-20 02:29:00,8.5,3.9,30.37,WNW,294,12.0,19.0,81,0.00,,---,0.00,0.00,VWS V14.01,2013-03-20 07:29:00,
2013-03-20 02:34:00,8.3,3.7,30.37,WNW,298,14.0,17.0,81,0.00,,---,0.00,0.00,VWS V14.01,2013-03-20 07:34:00,
2013-03-20 02:39:00,8.3,3.4,30.37,WNW,294,15.0,19.0,80,0.00,,---,0.00,0.00,VWS V14.01,2013-03-20 07:39:00,
2013-03-20 02:45:00,8.2,3.3,30.37,WNW,303,17.0,21.0,80,0.00,,---,0.00,0.00,VWS V14.01,2013-03-20 07:45:00,
2013-03-20 02:50:00,8.1,3.2,30.37,WNW,303,18.0,18.0,80,0.00,,---,0.00,0.00,VWS V14.01,2013-03-20 07:50:00,
2013-03-20 02:56:00,8.0,3.1,30.36,NW,317,15.0,22.0,80,0.00,,---,0.00,0.00,VWS V14.01,2013-03-20 07:56:00,
2013-03-20 03:02:00,7.9,3.0,30.37,WNW,299,11.0,22.0,80,0.00,,---,0.00,0.00,VWS V14.01,2013-03-20 08:02:00,
2013-03-20 03:07:00,7.8,2.9,30.36,WNW,301,19.0,19.0,80,0.00,,---,0.00,0.00,VWS V14.01,2013-03-20 08:07:00,
2013-03-20 03:13:00,7.7,2.8,30.37,WNW,299,17.0,22.0,80,0.00,,---,0.00,0.00,VWS V14.01,2013-03-20 08:13:00,
2013-03-20 03:18:00,7.7,2.8,30.37,NW,306,14.0,22.0,80,0.00,,---,0.00,0.00,VWS V14.01,2013-03-20 08:18:00,
2013-03-20 03:25:00,7.6,2.7,30.37,WNW,302,18.0,21.0,80,0.00,,---,0.00,0.00,VWS V14.01,2013-03-20 08:25:00,
2013-03-20 03:32:00,7.5,2.6,30.37,WNW,284,14.0,23.0,80,0.00,,---,0.00,0.00,VWS V14.01,2013-03-20 08:32:00,
2013-03-20 03:37:00,7.4,2.5,30.37,WNW,303,17.0,21.0,80,0.00,,---,0.00,0.00,VWS V14.01,2013-03-20 08:37:00,
2013-03-20 03:45:00,7.4,2.5,30.37,NW,304,11.0,23.0,80,0.00,,---,0.00,0.00,VWS V14.01,2013-03-20 08:45:00,
2013-03-20 03:53:00,7.3,2.4,30.37,WNW,296,11.0,22.0,80,0.00,,---,0.00,0.00,VWS V14.01,2013-03-20 08:53:00,
2013-03-20 03:58:00,7.2,2.3,30.37,WNW,289,15.0,22.0,80,0.00,,---,0.00,0.00,VWS V14.01,2013-03-20 08:58:00,
2013-03-20 04:03:00,7.2,2.3,30.37,WNW,303,19.0,19.0,80,0.00,,---,0.00,0.00,VWS V14.01,2013-03-20 09:03:00,
2013-03-20 04:09:00,7.1,2.2,30.37,WNW,296,14.0,21.0,80,0.00,,---,0.00,0.00,VWS V14.01,2013-03-20 09:09:00,
2013-03-20 04:14:00,7.1,2.2,30.37,WNW,294,17.0,21.0,80,0.00,,---,0.00,0.00,VWS V14.01,2013-03-20 09:14:00,
2013-03-20 04:20:00,7.0,2.2,30.37,WNW,297,16.0,19.0,80,0.00,,---,0.00,0.00,VWS V14.01,2013-03-20 09:20:00,
2013-03-20 04:25:00,6.9,2.0,30.37,WNW,296,16.0,21.0,80,0.00,,---,0.00,0.00,VWS V14.01,2013-03-20 09:25:00,
2013-03-20 04:30:00,6.9,2.0,30.37,WNW,287,15.0,23.0,80,0.00,,---,0.00,0.00,VWS V14.01,2013-03-20 09:30:00,
2013-03-20 04:38:00,6.8,2.0,30.37,WNW,302,19.0,20.0,80,0.00,,---,0.00,0.00,VWS V14.01,2013-03-20 09:38:00,
2013-03-20 04:43:00,6.8,2.0,30.37,WNW,300,12.0,20.0,80,0.00,,---,0.00,0.00,VWS V14.01,2013-03-20 09:43:00,
2013-03-20 04:48:00,6.7,1.9,30.38,WNW,301,15.0,20.0,80,0.00,,---,0.00,0.00,VWS V14.01,2013-03-20 09:48:00,
2013-03-20 04:54:00,6.6,1.8,30.38,WNW,288,13.0,20.0,80,0.00,,---,0.00,0.00,VWS V14.01,2013-03-20 09:54:00,
2013-03-20 04:59:00,6.5,1.7,30.38,WNW,302,15.0,22.0,80,0.00,,---,0.00,0.00,VWS V14.01,2013-03-20 09:59:00,
2013-03-20 05:04:00,6.4,1.6,30.38,WNW,300,21.0,21.0,80,0.00,,---,0.00,0.00,VWS V14.01,2013-03-20 10:04:00,
2013-03-20 05:09:00,6.4,1.6,30.38,WNW,284,12.0,23.0,80,0.00,,---,0.00,0.00,VWS V14.01,2013-03-20 10:09:00,
2013-03-20 05:15:00,6.3,1.5,30.38,WNW,302,17.0,23.0,80,0.00,,---,0.00,0.00,VWS V14.01,2013-03-20 10:15:00,
2013-03-20 05:20:00,6.2,1.4,30.38,WNW,295,13.0,17.0,80,0.00,,---,0.00,0.00,VWS V14.01,2013-03-20 10:20:00,
2013-03-20 05:25:00,6.1,1.3,30.37,WNW,284,14.0,17.0,80,0.00,,---,0.00,0.00,VWS V14.01,2013-03-20 10:25:00,
2013-03-20 05:30:00,6.1,1.3,30.37,WNW,290,16.0,18.0,80,0.00,,---,0.00,0.00,VWS V14.01,2013-03-20 10:30:00,
2013-03-20 05:35:00,6.0,1.2,30.37,WNW,292,14.0,17.0,80,0.00,,---,0.00,0.00,VWS V14.01,2013-03-20 10:35:00,
2013-03-20 05:41:00,6.0,1.2,30.37,WNW,292,13.0,19.0,80,0.00,,---,0.00,0.00,VWS V14.01,2013-03-20 10:41:00,
2013-03-20 05:47:00,6.0,1.2,30.37,WNW,288,15.0,19.0,80,0.00,,---,0.00,0.00,VWS V14.01,2013-03-20 10:47:00,
2013-03-20 05:52:00,6.0,1.2,30.37,WNW,298,14.0,18.0,80,0.00,,---,0.00,0.00,VWS V14.01,2013-03-20 10:52:00,
2013-03-20 05:59:00,6.1,1.3,30.38,WNW,288,16.0,21.0,80,0.00,,---,0.00,0.00,VWS V14.01,2013-03-20 10:59:00,
2013-03-20 06:04:00,6.0,1.2,30.38,WNW,296,18.0,20.0,80,0.00,,---,0.00,0.00,VWS V14.01,2013-03-20 11:04:00,
2013-03-20 06:12:00,6.0,1.2,30.38,WNW,291,17.0,22.0,80,0.00,,---,0.00,0.00,VWS V14.01,2013-03-20 11:12:00,
2013-03-20 06:18:00,6.0,1.2,30.38,WNW,288,15.0,22.0,80,0.00,,---,0.00,0.00,VWS V14.01,2013-03-20 11:18:00,
2013-03-20 06:24:00,5.9,1.1,30.38,WNW,291,13.0,17.0,80,0.00,,---,0.00,0.00,VWS V14.01,2013-03-20 11:24:00,
2013-03-20 06:30:00,5.9,1.1,30.38,WNW,292,12.0,20.0,80,0.00,,---,0.00,0.00,VWS V14.01,2013-03-20 11:30:00,
2013-03-20 06:37:00,5.8,1.0,30.39,WNW,295,14.0,17.0,80,0.00,,---,0.00,0.00,VWS V14.01,2013-03-20 11:37:00,
2013-03-20 06:42:00,5.8,1.0,30.39,WNW,303,19.0,20.0,80,0.00,,---,0.00,0.00,VWS V14.01,2013-03-20 11:42:00,
2013-03-20 06:47:00,5.8,1.0,30.39,WNW,290,16.0,22.0,80,0.00,,---,0.00,0.00,VWS V14.01,2013-03-20 11:47:00,
2013-03-20 06:52:00,5.8,1.0,30.39,WNW,302,18.0,19.0,80,0.00,,---,0.00,0.00,VWS V14.01,2013-03-20 11:52:00,
2013-03-20 06:57:00,5.8,1.0,30.39,WNW,295,17.0,22.0,80,0.00,,---,0.00,0.00,VWS V14.01,2013-03-20 11:57:00,
2013-03-20 07:02:00,5.7,0.9,30.39,WNW,298,14.0,22.0,80,0.00,,---,0.00,0.00,VWS V14.01,2013-03-20 12:02:00,
2013-03-20 07:07:00,5.7,0.9,30.39,WNW,290,14.0,21.0,80,0.00,,---,0.00,0.00,VWS V14.01,2013-03-20 12:07:00,
2013-03-20 07:13:00,5.6,0.8,30.39,WNW,287,16.0,21.0,80,0.00,,---,0.00,0.00,VWS V14.01,2013-03-20 12:13:00,
2013-03-20 07:18:00,5.5,0.7,30.39,WNW,284,15.0,17.0,80,0.00,,---,0.00,0.00,VWS V14.01,2013-03-20 12:18:00,
2013-03-20 07:24:00,5.5,0.7,30.40,West,281,18.0,22.0,80,0.00,,---,0.00,7.00,VWS V14.01,2013-03-20 12:24:00,
2013-03-20 07:29:00,5.5,0.7,30.40,WNW,296,16.0,22.0,80,0.00,,---,0.00,11.00,VWS V14.01,2013-03-20 12:29:00,
2013-03-20 07:38:00,5.5,0.7,30.40,WNW,287,16.0,19.0,80,0.00,,---,0.00,26.00,VWS V14.01,2013-03-20 12:38:00,
2013-03-20 07:45:00,5.5,0.7,30.39,WNW,288,13.0,19.0,80,0.00,,---,0.00,30.00,VWS V14.01,2013-03-20 12:45:00,
2013-03-20 07:50:00,5.6,0.5,30.39,WNW,287,17.0,23.0,79,0.00,,---,0.00,51.00,VWS V14.01,2013-03-20 12:50:00,
2013-03-20 07:55:00,5.7,0.6,30.39,WNW,299,16.0,23.0,79,0.00,,---,0.00,63.00,VWS V14.01,2013-03-20 12:55:00,
2013-03-20 08:02:00,5.8,0.7,30.40,NW,304,14.0,23.0,79,0.00,,---,0.00,84.00,VWS V14.01,2013-03-20 13:02:00,
2013-03-20 08:08:00,6.0,0.9,30.40,WNW,300,15.0,22.0,79,0.00,,---,0.00,105.00,VWS V14.01,2013-03-20 13:08:00,
2013-03-20 08:15:00,6.1,1.0,30.39,WNW,284,15.0,22.0,79,0.00,,---,0.00,123.00,VWS V14.01,2013-03-20 13:15:00,
2013-03-20 08:20:00,6.2,0.8,30.39,WNW,289,13.0,23.0,78,0.00,,---,0.00,137.00,VWS V14.01,2013-03-20 13:20:00,
2013-03-20 08:25:00,6.3,0.9,30.39,WNW,301,19.0,23.0,78,0.00,,---,0.00,153.00,VWS V14.01,2013-03-20 13:25:00,
2013-03-20 08:31:00,6.4,1.0,30.39,WNW,302,15.0,23.0,78,0.00,,---,0.00,172.00,VWS V14.01,2013-03-20 13:31:00,
2013-03-20 08:36:00,6.6,1.2,30.38,WNW,292,17.0,22.0,78,0.00,,---,0.00,190.00,VWS V14.01,2013-03-20 13:36:00,
2013-03-20 08:42:00,6.8,1.4,30.39,WNW,303,18.0,24.0,78,0.00,,---,0.00,211.00,VWS V14.01,2013-03-20 13:42:00,
2013-03-20 08:48:00,6.9,1.5,30.38,WNW,294,16.0,24.0,78,0.00,,---,0.00,232.00,VWS V14.01,2013-03-20 13:48:00,
2013-03-20 08:57:00,7.1,1.4,30.38,NW,310,18.0,23.0,77,0.00,,---,0.00,267.00,VWS V14.01,2013-03-20 13:57:00,
2013-03-20 09:02:00,7.3,1.9,30.38,WNW,303,18.0,23.0,78,0.00,,---,0.00,285.00,VWS V14.01,2013-03-20 14:02:00,
2013-03-20 09:08:00,7.4,2.0,30.38,WNW,302,23.0,23.0,78,0.00,,---,0.00,306.00,VWS V14.01,2013-03-20 14:08:00,
2013-03-20 09:13:00,7.6,2.2,30.38,WNW,300,21.0,23.0,78,0.00,,---,0.00,325.00,VWS V14.01,2013-03-20 14:13:00,
2013-03-20 09:18:00,7.7,2.0,30.38,WNW,299,17.0,24.0,77,0.00,,---,0.00,339.00,VWS V14.01,2013-03-20 14:18:00,
2013-03-20 09:23:00,7.8,2.1,30.38,WNW,298,14.0,25.0,77,0.00,,---,0.00,362.00,VWS V14.01,2013-03-20 14:23:00,
2013-03-20 09:29:00,7.9,2.2,30.38,NW,309,20.0,26.0,77,0.00,,---,0.00,381.00,VWS V14.01,2013-03-20 14:29:00,
2013-03-20 09:35:00,8.0,2.3,30.38,WNW,302,23.0,25.0,77,0.00,,---,0.00,399.00,VWS V14.01,2013-03-20 14:35:00,
2013-03-20 09:41:00,8.1,2.4,30.38,NW,311,20.0,25.0,77,0.00,,---,0.00,420.00,VWS V14.01,2013-03-20 14:41:00,
2013-03-20 09:47:00,8.2,2.5,30.38,WNW,294,19.0,26.0,77,0.00,,---,0.00,438.00,VWS V14.01,2013-03-20 14:47:00,
2013-03-20 09:54:00,8.3,2.6,30.38,WNW,300,17.0,23.0,77,0.00,,---,0.00,462.00,VWS V14.01,2013-03-20 14:54:00,
2013-03-20 10:00:00,8.5,2.8,30.38,WNW,290,18.0,23.0,77,0.00,,---,0.00,482.00,VWS V14.01,2013-03-20 15:00:00,
2013-03-20 10:05:00,8.6,2.9,30.39,NW,304,22.0,25.0,77,0.00,,---,0.00,497.00,VWS V14.01,2013-03-20 15:05:00,
2013-03-20 10:12:00,9.0,3.3,30.38,WNW,291,17.0,25.0,77,0.00,,---,0.00,515.00,VWS V14.01,2013-03-20 15:12:00,
2013-03-20 10:18:00,9.2,3.5,30.38,NW,305,14.0,25.0,77,0.00,,---,0.00,534.00,VWS V14.01,2013-03-20 15:18:00,
2013-03-20 10:25:00,9.4,3.4,30.38,WNW,300,16.0,24.0,76,0.00,,---,0.00,555.00,VWS V14.01,2013-03-20 15:25:00,
2013-03-20 10:30:00,9.7,3.7,30.38,WNW,300,21.0,24.0,76,0.00,,---,0.00,570.00,VWS V14.01,2013-03-20 15:30:00,
2013-03-20 10:35:00,9.9,3.9,30.38,WNW,300,16.0,23.0,76,0.00,,---,0.00,584.00,VWS V14.01,2013-03-20 15:35:00,
2013-03-20 10:40:00,10.0,4.0,30.38,NW,304,18.0,24.0,76,0.00,,---,0.00,598.00,VWS V14.01,2013-03-20 15:40:00,
2013-03-20 10:46:00,10.2,4.2,30.38,NW,307,17.0,26.0,76,0.00,,---,0.00,612.00,VWS V14.01,2013-03-20 15:46:00,
2013-03-20 10:51:00,10.3,4.2,30.38,WNW,302,23.0,24.0,76,0.00,,---,0.00,626.00,VWS V14.01,2013-03-20 15:51:00,
2013-03-20 11:01:00,10.7,4.3,30.37,WNW,299,24.0,26.0,75,0.00,,---,0.00,652.00,VWS V14.01,2013-03-20 16:01:00,
2013-03-20 11:06:00,10.8,4.4,30.37,WNW,287,19.0,23.0,75,0.00,,---,0.00,663.00,VWS V14.01,2013-03-20 16:06:00,
2013-03-20 11:11:00,11.1,4.7,30.37,WNW,285,19.0,24.0,75,0.00,,---,0.00,677.00,VWS V14.01,2013-03-20 16:11:00,
2013-03-20 11:17:00,11.3,4.9,30.37,WNW,299,16.0,24.0,75,0.00,,---,0.00,687.00,VWS V14.01,2013-03-20 16:17:00,
2013-03-20 11:22:00,11.6,5.2,30.37,WNW,296,14.0,21.0,75,0.00,,---,0.00,698.00,VWS V14.01,2013-03-20 16:22:00,
2013-03-20 11:28:00,11.7,4.4,30.37,NW,317,15.0,24.0,72,0.00,,---,0.00,710.00,VWS V14.01,2013-03-20 16:28:00,
2013-03-20 11:33:00,11.9,4.9,30.37,NW,313,19.0,24.0,73,0.00,,---,0.00,721.00,VWS V14.01,2013-03-20 16:33:00,
2013-03-20 11:40:00,12.3,5.3,30.36,NW,314,23.0,25.0,73,0.00,,---,0.00,733.00,VWS V14.01,2013-03-20 16:40:00,
2013-03-20 11:47:00,12.7,5.1,30.36,WNW,302,21.0,27.0,71,0.00,,---,0.00,745.00,VWS V14.01,2013-03-20 16:47:00,
2013-03-20 11:57:00,13.0,5.4,30.36,NW,313,18.0,23.0,71,0.00,,---,0.00,761.00,VWS V14.01,2013-03-20 16:57:00,
2013-03-20 12:03:00,13.2,5.6,30.36,WNW,302,21.0,25.0,71,0.00,,---,0.00,772.00,VWS V14.01,2013-03-20 17:03:00,
2013-03-20 12:08:00,13.4,5.8,30.36,WNW,300,19.0,24.0,71,0.00,,---,0.00,779.00,VWS V14.01,2013-03-20 17:08:00,
2013-03-20 12:17:00,13.9,6.2,30.36,NW,309,17.0,24.0,71,0.00,,---,0.00,791.00,VWS V14.01,2013-03-20 17:17:00,
2013-03-20 12:22:00,14.1,6.4,30.36,NW,308,21.0,23.0,71,0.00,,---,0.00,796.00,VWS V14.01,2013-03-20 17:22:00,
2013-03-20 12:27:00,14.0,6.7,30.35,NW,311,17.0,28.0,72,0.00,,---,0.00,802.00,VWS V14.01,2013-03-20 17:27:00,
2013-03-20 12:32:00,14.3,6.6,30.35,WNW,298,14.0,28.0,71,0.00,,---,0.00,809.00,VWS V14.01,2013-03-20 17:32:00,
2013-03-20 12:38:00,14.4,6.7,30.35,NW,307,19.0,25.0,71,0.00,,---,0.00,814.00,VWS V14.01,2013-03-20 17:38:00,
2013-03-20 12:43:00,14.6,6.3,30.35,NW,307,21.0,25.0,69,0.00,,---,0.00,817.00,VWS V14.01,2013-03-20 17:43:00,
2013-03-20 12:49:00,14.8,6.8,30.35,WNW,299,18.0,22.0,70,0.00,,---,0.00,821.00,VWS V14.01,2013-03-20 17:49:00,
2013-03-20 12:54:00,15.0,7.0,30.34,NW,313,19.0,24.0,70,0.00,,---,0.00,824.00,VWS V14.01,2013-03-20 17:54:00,
2013-03-20 13:02:00,15.1,6.8,30.34,NW,304,20.0,27.0,69,0.00,,---,0.00,828.00,VWS V14.01,2013-03-20 18:02:00,
2013-03-20 13:07:00,15.3,7.6,30.34,NW,314,23.0,24.0,71,0.00,,---,0.00,830.00,VWS V14.01,2013-03-20 18:07:00,
2013-03-20 13:12:00,15.4,7.7,30.34,WNW,302,18.0,25.0,71,0.00,,---,0.00,833.00,VWS V14.01,2013-03-20 18:12:00,
2013-03-20 13:18:00,15.5,7.5,30.33,NW,319,21.0,25.0,70,0.00,,---,0.00,833.00,VWS V14.01,2013-03-20 18:18:00,
2013-03-20 13:22:00,15.4,6.7,30.33,NW,305,22.0,26.0,68,0.00,,---,0.00,835.00,VWS V14.01,2013-03-20 18:22:00,
2013-03-20 13:28:00,15.5,6.8,30.33,NW,315,20.0,28.0,68,0.00,,---,0.00,835.00,VWS V14.01,2013-03-20 18:28:00,
2013-03-20 13:34:00,15.8,7.4,30.33,NW,311,22.0,24.0,69,0.00,,---,0.00,833.00,VWS V14.01,2013-03-20 18:34:00,
2013-03-20 13:42:00,15.7,7.3,30.32,NW,306,15.0,27.0,69,0.00,,---,0.00,828.00,VWS V14.01,2013-03-20 18:42:00,
2013-03-20 13:47:00,15.8,7.8,30.32,WNW,288,20.0,27.0,70,0.00,,---,0.00,828.00,VWS V14.01,2013-03-20 18:47:00,
2013-03-20 13:52:00,16.2,8.5,30.32,WNW,298,22.0,23.0,71,0.00,,---,0.00,826.00,VWS V14.01,2013-03-20 18:52:00,
2013-03-20 13:57:00,16.2,7.8,30.32,WNW,298,18.0,26.0,69,0.00,,---,0.00,824.00,VWS V14.01,2013-03-20 18:57:00,
2013-03-20 14:03:00,16.3,8.2,30.31,NW,307,21.0,27.0,70,0.00,,---,0.00,821.00,VWS V14.01,2013-03-20 19:03:00,
2013-03-20 14:08:00,16.2,7.8,30.31,NW,316,20.0,29.0,69,0.00,,---,0.00,821.00,VWS V14.01,2013-03-20 19:08:00,
2013-03-20 14:13:00,16.3,7.9,30.31,WNW,299,21.0,29.0,69,0.00,,---,0.00,816.00,VWS V14.01,2013-03-20 19:13:00,
2013-03-20 14:18:00,16.4,7.7,30.31,WNW,296,19.0,20.0,68,0.00,,---,0.00,812.00,VWS V14.01,2013-03-20 19:18:00,
2013-03-20 14:24:00,16.3,7.3,30.31,NW,307,19.0,27.0,67,0.00,,---,0.00,807.00,VWS V14.01,2013-03-20 19:24:00,
2013-03-20 14:29:00,16.6,7.9,30.31,NW,304,18.0,28.0,68,0.00,,---,0.00,802.00,VWS V14.01,2013-03-20 19:29:00,
2013-03-20 14:35:00,16.9,8.5,30.30,NW,323,20.0,27.0,69,0.00,,---,0.00,800.00,VWS V14.01,2013-03-20 19:35:00,
2013-03-20 14:40:00,17.3,8.2,30.30,NW,304,20.0,29.0,67,0.00,,---,0.00,802.00,VWS V14.01,2013-03-20 19:40:00,
2013-03-20 14:45:00,17.4,8.3,30.30,NW,317,19.0,29.0,67,0.00,,---,0.00,780.00,VWS V14.01,2013-03-20 19:45:00,
2013-03-20 14:50:00,17.4,8.3,30.30,NW,306,26.0,29.0,67,0.00,,---,0.00,788.00,VWS V14.01,2013-03-20 19:50:00,
2013-03-20 14:57:00,17.6,7.8,30.30,WNW,300,24.0,30.0,65,0.00,,---,0.00,768.00,VWS V14.01,2013-03-20 19:57:00,
2013-03-20 15:05:00,17.6,8.5,30.29,WNW,289,16.0,27.0,67,0.00,,---,0.00,758.00,VWS V14.01,2013-03-20 20:05:00,
2013-03-20 15:10:00,17.7,8.6,30.29,NW,322,20.0,28.0,67,0.00,,---,0.00,754.00,VWS V14.01,2013-03-20 20:10:00,
2013-03-20 15:15:00,17.6,8.5,30.29,WNW,303,24.0,30.0,67,0.00,,---,0.00,749.00,VWS V14.01,2013-03-20 20:15:00,
2013-03-20 15:21:00,17.6,9.5,30.29,WNW,296,22.0,27.0,70,0.00,,---,0.00,838.00,VWS V14.01,2013-03-20 20:21:00,
2013-03-20 15:27:00,17.6,8.9,30.29,NW,311,22.0,27.0,68,0.00,,---,0.00,798.00,VWS V14.01,2013-03-20 20:27:00,
2013-03-20 15:32:00,17.7,9.3,30.28,WNW,302,23.0,27.0,69,0.00,,---,0.00,749.00,VWS V14.01,2013-03-20 20:32:00,
2013-03-20 15:37:00,17.9,9.5,30.28,NW,308,21.0,25.0,69,0.00,,---,0.00,715.00,VWS V14.01,2013-03-20 20:37:00,
2013-03-20 15:43:00,17.7,9.3,30.28,NW,314,27.0,27.0,69,0.00,,---,0.00,708.00,VWS V14.01,2013-03-20 20:43:00,
2013-03-20 15:48:00,17.5,9.4,30.28,NW,314,18.0,27.0,70,0.00,,---,0.00,698.00,VWS V14.01,2013-03-20 20:48:00,
2013-03-20 15:53:00,17.7,9.6,30.28,NW,306,19.0,27.0,70,0.00,,---,0.00,698.00,VWS V14.01,2013-03-20 20:53:00,
2013-03-20 15:59:00,17.8,9.4,30.28,NW,309,19.0,27.0,69,0.00,,---,0.00,689.00,VWS V14.01,2013-03-20 20:59:00,
2013-03-20 16:04:00,18.0,9.2,30.28,NW,311,24.0,24.0,68,0.00,,---,0.00,664.00,VWS V14.01,2013-03-20 21:04:00,
2013-03-20 16:09:00,17.7,8.9,30.28,NW,314,24.0,28.0,68,0.00,,---,0.00,645.00,VWS V14.01,2013-03-20 21:09:00,
2013-03-20 16:15:00,17.7,8.6,30.28,NW,320,21.0,28.0,67,0.00,,---,0.00,608.00,VWS V14.01,2013-03-20 21:15:00,
2013-03-20 16:24:00,17.7,7.9,30.27,NW,310,25.0,29.0,65,0.00,,---,0.00,577.00,VWS V14.01,2013-03-20 21:24:00,
2013-03-20 16:30:00,17.7,8.3,30.27,NW,315,27.0,29.0,66,0.00,,---,0.00,557.00,VWS V14.01,2013-03-20 21:30:00,
2013-03-20 16:35:00,17.8,8.4,30.27,NNW,328,21.0,24.0,66,0.00,,---,0.00,543.00,VWS V14.01,2013-03-20 21:35:00,
2013-03-20 16:43:00,17.6,7.8,30.27,WNW,300,24.0,32.0,65,0.00,,---,0.00,515.00,VWS V14.01,2013-03-20 21:43:00,
2013-03-20 16:49:00,17.9,8.8,30.27,WNW,296,17.0,19.0,67,0.00,,---,0.00,506.00,VWS V14.01,2013-03-20 21:49:00,
2013-03-20 16:55:00,17.9,8.1,30.27,WNW,294,24.0,28.0,65,0.00,,---,0.00,485.00,VWS V14.01,2013-03-20 21:55:00,
2013-03-20 17:01:00,17.6,7.2,30.27,NW,306,21.0,30.0,63,0.00,,---,0.00,462.00,VWS V14.01,2013-03-20 22:01:00,
2013-03-20 17:06:00,17.6,7.2,30.27,WNW,295,23.0,26.0,63,0.00,,---,0.00,448.00,VWS V14.01,2013-03-20 22:06:00,
2013-03-20 17:12:00,17.5,7.1,30.27,NW,308,24.0,30.0,63,0.00,,---,0.00,427.00,VWS V14.01,2013-03-20 22:12:00,
2013-03-20 17:17:00,17.4,7.3,30.27,WNW,300,26.0,30.0,64,0.00,,---,0.00,411.00,VWS V14.01,2013-03-20 22:17:00,
2013-03-20 17:22:00,17.4,7.3,30.26,NW,306,24.0,29.0,64,0.00,,---,0.00,396.00,VWS V14.01,2013-03-20 22:22:00,
2013-03-20 17:28:00,17.3,6.9,30.26,WNW,300,24.0,30.0,63,0.00,,---,0.00,371.00,VWS V14.01,2013-03-20 22:28:00,
2013-03-20 17:33:00,17.4,7.3,30.26,WNW,299,30.0,30.0,64,0.00,,---,0.00,353.00,VWS V14.01,2013-03-20 22:33:00,
2013-03-20 17:39:00,17.4,8.0,30.26,NW,304,25.0,29.0,66,0.00,,---,0.00,334.00,VWS V14.01,2013-03-20 22:39:00,
2013-03-20 17:44:00,17.3,7.2,30.26,NW,304,15.0,29.0,64,0.00,,---,0.00,311.00,VWS V14.01,2013-03-20 22:44:00,
2013-03-20 17:49:00,17.3,7.9,30.26,NW,313,20.0,23.0,66,0.00,,---,0.00,292.00,VWS V14.01,2013-03-20 22:49:00,
2013-03-20 17:55:00,17.3,7.9,30.25,WNW,303,20.0,24.0,66,0.00,,---,0.00,267.00,VWS V14.01,2013-03-20 22:55:00,
2013-03-20 18:01:00,17.1,7.0,30.25,NW,313,23.0,29.0,64,0.00,,---,0.00,246.00,VWS V14.01,2013-03-20 23:01:00,
2013-03-20 18:06:00,17.0,6.9,30.25,NW,313,20.0,25.0,64,0.00,,---,0.00,229.00,VWS V14.01,2013-03-20 23:06:00,
2013-03-20 18:12:00,16.8,6.8,30.25,NW,313,21.0,25.0,64,0.00,,---,0.00,200.00,VWS V14.01,2013-03-20 23:12:00,
2013-03-20 18:17:00,16.8,7.4,30.25,NW,314,21.0,25.0,66,0.00,,---,0.00,179.00,VWS V14.01,2013-03-20 23:17:00,
2013-03-20 18:22:00,16.7,6.7,30.25,NW,310,21.0,23.0,64,0.00,,---,0.00,158.00,VWS V14.01,2013-03-20 23:22:00,
2013-03-20 18:28:00,16.5,6.5,30.25,WNW,300,14.0,25.0,64,0.00,,---,0.00,137.00,VWS V14.01,2013-03-20 23:28:00,
2013-03-20 18:33:00,16.4,6.4,30.25,NW,314,25.0,25.0,64,0.00,,---,0.00,114.00,VWS V14.01,2013-03-20 23:33:00,
2013-03-20 18:38:00,16.3,5.9,30.25,NW,318,18.0,25.0,63,0.00,,---,0.00,97.00,VWS V14.01,2013-03-20 23:38:00,
2013-03-20 18:45:00,16.1,6.8,30.24,NW,312,19.0,25.0,66,0.00,,---,0.00,76.00,VWS V14.01,2013-03-20 23:45:00,
2013-03-20 18:50:00,16.0,6.0,30.24,NW,306,23.0,25.0,64,0.00,,---,0.00,62.00,VWS V14.01,2013-03-20 23:50:00,
2013-03-20 18:55:00,15.9,5.9,30.24,WNW,301,21.0,27.0,64,0.00,,---,0.00,47.00,VWS V14.01,2013-03-20 23:55:00,
2013-03-20 19:03:00,15.5,6.2,30.24,NW,309,18.0,19.0,66,0.00,,---,0.00,26.00,VWS V14.01,2013-03-21 00:03:00,
2013-03-20 19:09:00,15.3,6.0,30.24,NW,305,18.0,24.0,66,0.00,,---,0.00,19.00,VWS V14.01,2013-03-21 00:09:00,
2013-03-20 19:15:00,15.2,5.6,30.24,WNW,297,18.0,24.0,65,0.00,,---,0.00,16.00,VWS V14.01,2013-03-21 00:15:00,
2013-03-20 19:20:00,15.1,5.8,30.24,NW,304,15.0,23.0,66,0.00,,---,0.00,12.00,VWS V14.01,2013-03-21 00:20:00,
2013-03-20 19:27:00,14.9,5.6,30.24,WNW,299,21.0,23.0,66,0.00,,---,0.00,7.00,VWS V14.01,2013-03-21 00:27:00,
2013-03-20 19:33:00,14.7,5.8,30.24,NW,305,12.0,23.0,67,0.00,,---,0.00,0.00,VWS V14.01,2013-03-21 00:33:00,
2013-03-20 19:38:00,14.5,5.9,30.25,NW,304,14.0,16.0,68,0.00,,---,0.00,0.00,VWS V14.01,2013-03-21 00:38:00,
2013-03-20 19:45:00,14.3,5.7,30.25,NW,306,17.0,18.0,68,0.00,,---,0.00,0.00,VWS V14.01,2013-03-21 00:45:00,
2013-03-20 19:52:00,14.2,5.9,30.25,NW,304,15.0,18.0,69,0.00,,---,0.00,0.00,VWS V14.01,2013-03-21 00:52:00,
2013-03-20 20:00:00,13.9,5.9,30.25,WNW,298,14.0,18.0,70,0.00,,---,0.00,0.00,VWS V14.01,2013-03-21 01:00:00,
2013-03-20 20:05:00,13.9,6.2,30.25,WNW,303,13.0,16.0,71,0.00,,---,0.00,0.00,VWS V14.01,2013-03-21 01:05:00,
2013-03-20 20:11:00,13.8,6.5,30.25,NW,307,13.0,16.0,72,0.00,,---,0.00,0.00,VWS V14.01,2013-03-21 01:11:00,
2013-03-20 20:16:00,13.6,6.3,30.25,WNW,298,13.0,16.0,72,0.00,,---,0.00,0.00,VWS V14.01,2013-03-21 01:16:00,
2013-03-20 20:23:00,13.5,6.5,30.25,WNW,295,9.0,16.0,73,0.00,,---,0.00,0.00,VWS V14.01,2013-03-21 01:23:00,
2013-03-20 20:28:00,13.3,6.3,30.25,WNW,302,9.0,16.0,73,0.00,,---,0.00,0.00,VWS V14.01,2013-03-21 01:28:00,
2013-03-20 20:34:00,13.1,6.4,30.25,NW,309,11.0,13.0,74,0.00,,---,0.00,0.00,VWS V14.01,2013-03-21 01:34:00,
2013-03-20 20:39:00,13.0,6.3,30.26,NW,309,11.0,13.0,74,0.00,,---,0.00,0.00,VWS V14.01,2013-03-21 01:39:00,
2013-03-20 20:44:00,12.8,6.1,30.25,NW,311,13.0,13.0,74,0.00,,---,0.00,0.00,VWS V14.01,2013-03-21 01:44:00,
2013-03-20 20:50:00,12.7,6.3,30.26,NW,319,10.0,11.0,75,0.00,,---,0.00,0.00,VWS V14.01,2013-03-21 01:50:00,
2013-03-20 20:55:00,12.5,6.1,30.26,NW,316,7.0,12.0,75,0.00,,---,0.00,0.00,VWS V14.01,2013-03-21 01:55:00,
2013-03-20 21:00:00,12.4,6.0,30.26,NW,308,6.0,12.0,75,0.00,,---,0.00,0.00,VWS V14.01,2013-03-21 02:00:00,
2013-03-20 21:06:00,12.1,5.7,30.25,WNW,302,10.0,10.0,75,0.00,,---,0.00,0.00,VWS V14.01,2013-03-21 02:06:00,
2013-03-20 21:11:00,12.0,5.6,30.25,WNW,299,9.0,12.0,75,0.00,,---,0.00,0.00,VWS V14.01,2013-03-21 02:11:00,
2013-03-20 21:17:00,11.9,5.5,30.25,NW,304,11.0,12.0,75,0.00,,---,0.00,0.00,VWS V14.01,2013-03-21 02:17:00,
2013-03-20 21:22:00,11.8,5.4,30.25,WNW,303,10.0,12.0,75,0.00,,---,0.00,0.00,VWS V14.01,2013-03-21 02:22:00,
2013-03-20 21:27:00,11.7,5.3,30.25,NW,307,9.0,12.0,75,0.00,,---,0.00,0.00,VWS V14.01,2013-03-21 02:27:00,
2013-03-20 21:33:00,11.6,5.2,30.26,WNW,303,7.0,12.0,75,0.00,,---,0.00,0.00,VWS V14.01,2013-03-21 02:33:00,
2013-03-20 21:39:00,11.5,5.1,30.26,NW,308,9.0,10.0,75,0.00,,---,0.00,0.00,VWS V14.01,2013-03-21 02:39:00,
2013-03-20 21:44:00,11.4,5.0,30.26,NW,313,8.0,10.0,75,0.00,,---,0.00,0.00,VWS V14.01,2013-03-21 02:44:00,
2013-03-20 21:50:00,11.2,4.8,30.25,NW,312,9.0,10.0,75,0.00,,---,0.00,0.00,VWS V14.01,2013-03-21 02:50:00,
2013-03-20 21:55:00,11.0,4.6,30.25,NW,315,8.0,11.0,75,0.00,,---,0.00,0.00,VWS V14.01,2013-03-21 02:55:00,
2013-03-20 22:01:00,11.0,4.6,30.25,NW,315,9.0,11.0,75,0.00,,---,0.00,0.00,VWS V14.01,2013-03-21 03:01:00,
2013-03-20 22:08:00,11.0,4.6,30.25,NW,313,12.0,13.0,75,0.00,,---,0.00,0.00,VWS V14.01,2013-03-21 03:08:00,
2013-03-20 22:14:00,11.0,4.6,30.25,NW,321,9.0,14.0,75,0.00,,---,0.00,0.00,VWS V14.01,2013-03-21 03:14:00,
2013-03-20 22:19:00,11.1,4.4,30.25,NW,316,12.0,14.0,74,0.00,,---,0.00,0.00,VWS V14.01,2013-03-21 03:19:00,
2013-03-20 22:25:00,11.3,4.6,30.25,NW,319,12.0,15.0,74,0.00,,---,0.00,0.00,VWS V14.01,2013-03-21 03:25:00,
2013-03-20 22:30:00,11.4,4.4,30.25,NNW,327,13.0,16.0,73,0.00,,---,0.00,0.00,VWS V14.01,2013-03-21 03:30:00,
2013-03-20 22:37:00,11.4,4.4,30.25,NW,319,10.0,15.0,73,0.00,,---,0.00,0.00,VWS V14.01,2013-03-21 03:37:00,
2013-03-20 22:42:00,11.2,4.2,30.25,NW,320,10.0,15.0,73,0.00,,---,0.00,0.00,VWS V14.01,2013-03-21 03:42:00,
2013-03-20 22:47:00,11.1,4.4,30.24,NW,309,10.0,15.0,74,0.00,,---,0.00,0.00,VWS V14.01,2013-03-21 03:47:00,
2013-03-20 22:52:00,10.9,4.2,30.25,NW,309,9.0,13.0,74,0.00,,---,0.00,0.00,VWS V14.01,2013-03-21 03:52:00,
2013-03-20 22:57:00,10.7,4.3,30.24,NW,304,9.0,13.0,75,0.00,,---,0.00,0.00,VWS V14.01,2013-03-21 03:57:00,
2013-03-20 23:00:00,10.6,4.2,30.24,NW,307,10.0,13.0,75,0.00,,---,0.00,0.00,VWS V14.01,2013-03-21 04:00:00,
2013-03-20 23:01:00,10.5,4.2,30.24,NW,304,10.0,13.0,75,0.00,,---,0.00,0.00,VWS V14.01,2013-03-21 04:01:00,
2013-03-20 23:03:00,10.5,4.2,30.24,WNW,303,12.0,13.0,75,0.00,,---,0.00,0.00,VWS V14.01,2013-03-21 04:03:00,
2013-03-20 23:09:00,10.4,4.1,30.24,NW,309,10.0,13.0,75,0.00,,---,0.00,0.00,VWS V14.01,2013-03-21 04:09:00,
2013-03-20 23:15:00,10.3,4.0,30.24,NW,306,9.0,13.0,75,0.00,,---,0.00,0.00,VWS V14.01,2013-03-21 04:15:00,
2013-03-20 23:20:00,10.2,3.9,30.24,NW,307,10.0,12.0,75,0.00,,---,0.00,0.00,VWS V14.01,2013-03-21 04:20:00,
2013-03-20 23:26:00,10.1,4.1,30.24,NW,309,6.0,12.0,76,0.00,,---,0.00,0.00,VWS V14.01,2013-03-21 04:26:00,
2013-03-20 23:31:00,10.0,4.0,30.24,NW,307,10.0,12.0,76,0.00,,---,0.00,0.00,VWS V14.01,2013-03-21 04:31:00,
2013-03-20 23:36:00,9.9,3.9,30.24,NW,311,9.0,12.0,76,0.00,,---,0.00,0.00,VWS V14.01,2013-03-21 04:36:00,
2013-03-20 23:43:00,9.9,3.9,30.23,NW,307,7.0,12.0,76,0.00,,---,0.00,0.00,VWS V14.01,2013-03-21 04:43:00,
2013-03-20 23:50:00,9.7,3.7,30.23,NW,304,11.0,12.0,76,0.00,,---,0.00,0.00,VWS V14.01,2013-03-21 04:50:00,
2013-03-20 23:55:00,9.6,3.8,30.23,NW,314,11.0,13.0,77,0.00,,---,0.00,0.00,VWS V14.01,2013-03-21 04:55:00,